sensor_id;sensor_type;location;lat;lon;timestamp;P1;durP1;ratioP1;P2;durP2;ratioP2
3873;SDS011;1952;50.872;6.692;2024-01-15T00:00:34;17.03;;;9.93;;
3873;SDS011;1952;50.872;6.692;2024-01-15T00:03:03;14.70;;;10.33;;
3873;SDS011;1952;50.872;6.692;2024-01-15T00:05:31;16.70;;;9.83;;
3873;SDS011;1952;50.872;6.692;2024-01-15T00:08:00;16.53;;;9.83;;
3873;SDS011;1952;50.872;6.692;2024-01-15T00:10:28;19.20;;;10.03;;
3873;SDS011;1952;50.872;6.692;2024-01-15T00:12:57;12.03;;;9.00;;
3873;SDS011;1952;50.872;6.692;2024-01-15T00:15:29;19.20;;;10.60;;
3873;SDS011;1952;50.872;6.692;2024-01-15T00:17:58;17.63;;;9.13;;
3873;SDS011;1952;50.872;6.692;2024-01-15T00:20:26;15.77;;;11.10;;
3873;SDS011;1952;50.872;6.692;2024-01-15T00:22:56;21.93;;;10.10;;
3873;SDS011;1952;50.872;6.692;2024-01-15T00:25:25;22.73;;;9.57;;
3873;SDS011;1952;50.872;6.692;2024-01-15T00:27:53;16.70;;;9.03;;
3873;SDS011;1952;50.872;6.692;2024-01-15T00:30:22;21.77;;;11.77;;
3873;SDS011;1952;50.872;6.692;2024-01-15T00:32:52;17.50;;;9.77;;
3873;SDS011;1952;50.872;6.692;2024-01-15T00:35:20;20.37;;;11.40;;
3873;SDS011;1952;50.872;6.692;2024-01-15T00:37:49;17.97;;;9.30;;
3873;SDS011;1952;50.872;6.692;2024-01-15T00:40:19;19.00;;;10.17;;
3873;SDS011;1952;50.872;6.692;2024-01-15T00:42:47;18.37;;;9.87;;
3873;SDS011;1952;50.872;6.692;2024-01-15T00:45:18;21.53;;;10.87;;
3873;SDS011;1952;50.872;6.692;2024-01-15T00:47:48;17.87;;;10.10;;
3873;SDS011;1952;50.872;6.692;2024-01-15T00:50:18;20.03;;;9.77;;
3873;SDS011;1952;50.872;6.692;2024-01-15T00:52:47;17.87;;;10.00;;
3873;SDS011;1952;50.872;6.692;2024-01-15T00:55:15;15.47;;;9.10;;
3873;SDS011;1952;50.872;6.692;2024-01-15T00:57:43;19.53;;;9.90;;
3873;SDS011;1952;50.872;6.692;2024-01-15T01:00:12;15.43;;;8.70;;
3873;SDS011;1952;50.872;6.692;2024-01-15T01:02:41;17.50;;;10.77;;
3873;SDS011;1952;50.872;6.692;2024-01-15T01:05:09;17.50;;;9.73;;
3873;SDS011;1952;50.872;6.692;2024-01-15T01:07:42;11.23;;;8.40;;
3873;SDS011;1952;50.872;6.692;2024-01-15T01:53:59;18.67;;;12.10;;
3873;SDS011;1952;50.872;6.692;2024-01-15T01:56:28;21.07;;;12.07;;
3873;SDS011;1952;50.872;6.692;2024-01-15T01:58:56;17.13;;;11.23;;
3873;SDS011;1952;50.872;6.692;2024-01-15T02:01:24;20.33;;;11.33;;
3873;SDS011;1952;50.872;6.692;2024-01-15T02:03:53;16.57;;;10.10;;
3873;SDS011;1952;50.872;6.692;2024-01-15T02:06:23;17.50;;;9.80;;
3873;SDS011;1952;50.872;6.692;2024-01-15T02:08:51;20.77;;;11.83;;
3873;SDS011;1952;50.872;6.692;2024-01-15T02:11:20;20.87;;;12.07;;
3873;SDS011;1952;50.872;6.692;2024-01-15T02:13:49;21.03;;;12.17;;
3873;SDS011;1952;50.872;6.692;2024-01-15T02:16:17;20.43;;;11.83;;
3873;SDS011;1952;50.872;6.692;2024-01-15T02:18:45;18.70;;;12.10;;
3873;SDS011;1952;50.872;6.692;2024-01-15T02:21:14;18.93;;;10.70;;
3873;SDS011;1952;50.872;6.692;2024-01-15T02:23:43;16.20;;;10.10;;
3873;SDS011;1952;50.872;6.692;2024-01-15T02:26:12;14.53;;;8.90;;
3873;SDS011;1952;50.872;6.692;2024-01-15T02:28:40;19.70;;;11.77;;
3873;SDS011;1952;50.872;6.692;2024-01-15T02:31:10;20.33;;;11.67;;
3873;SDS011;1952;50.872;6.692;2024-01-15T02:33:39;18.00;;;11.17;;
3873;SDS011;1952;50.872;6.692;2024-01-15T02:36:09;23.43;;;11.60;;
3873;SDS011;1952;50.872;6.692;2024-01-15T02:38:37;19.53;;;10.70;;
3873;SDS011;1952;50.872;6.692;2024-01-15T02:41:07;20.97;;;10.50;;
3873;SDS011;1952;50.872;6.692;2024-01-15T02:43:35;20.50;;;12.70;;
3873;SDS011;1952;50.872;6.692;2024-01-15T02:46:03;19.90;;;10.77;;
3873;SDS011;1952;50.872;6.692;2024-01-15T02:48:31;20.37;;;10.73;;
3873;SDS011;1952;50.872;6.692;2024-01-15T02:51:01;21.73;;;11.50;;
3873;SDS011;1952;50.872;6.692;2024-01-15T02:53:29;19.57;;;11.50;;
3873;SDS011;1952;50.872;6.692;2024-01-15T02:55:58;13.97;;;9.93;;
3873;SDS011;1952;50.872;6.692;2024-01-15T02:58:27;20.13;;;10.30;;
3873;SDS011;1952;50.872;6.692;2024-01-15T03:00:56;17.77;;;11.17;;
3873;SDS011;1952;50.872;6.692;2024-01-15T03:03:24;18.47;;;12.77;;
3873;SDS011;1952;50.872;6.692;2024-01-15T03:05:53;18.97;;;10.60;;
3873;SDS011;1952;50.872;6.692;2024-01-15T03:08:21;15.50;;;10.83;;
3873;SDS011;1952;50.872;6.692;2024-01-15T03:10:50;20.57;;;11.77;;
3873;SDS011;1952;50.872;6.692;2024-01-15T03:13:18;17.27;;;11.37;;
3873;SDS011;1952;50.872;6.692;2024-01-15T03:15:47;18.63;;;10.03;;
3873;SDS011;1952;50.872;6.692;2024-01-15T03:18:16;13.60;;;8.90;;
3873;SDS011;1952;50.872;6.692;2024-01-15T03:20:44;18.30;;;11.73;;
3873;SDS011;1952;50.872;6.692;2024-01-15T03:23:13;13.60;;;10.07;;
3873;SDS011;1952;50.872;6.692;2024-01-15T03:25:41;17.20;;;11.97;;
3873;SDS011;1952;50.872;6.692;2024-01-15T03:28:10;15.67;;;10.77;;
3873;SDS011;1952;50.872;6.692;2024-01-15T03:30:39;21.33;;;12.13;;
3873;SDS011;1952;50.872;6.692;2024-01-15T03:33:08;17.40;;;11.60;;
3873;SDS011;1952;50.872;6.692;2024-01-15T03:35:37;18.50;;;11.30;;
3873;SDS011;1952;50.872;6.692;2024-01-15T03:38:04;19.23;;;10.90;;
3873;SDS011;1952;50.872;6.692;2024-01-15T03:40:33;20.93;;;12.30;;
3873;SDS011;1952;50.872;6.692;2024-01-15T03:43:01;16.17;;;10.90;;
3873;SDS011;1952;50.872;6.692;2024-01-15T03:45:30;15.97;;;10.77;;
3873;SDS011;1952;50.872;6.692;2024-01-15T03:47:58;17.63;;;11.57;;
3873;SDS011;1952;50.872;6.692;2024-01-15T03:50:28;17.67;;;10.60;;
3873;SDS011;1952;50.872;6.692;2024-01-15T03:52:56;18.60;;;11.30;;
3873;SDS011;1952;50.872;6.692;2024-01-15T03:55:25;15.23;;;11.67;;
3873;SDS011;1952;50.872;6.692;2024-01-15T03:57:53;18.20;;;10.60;;
3873;SDS011;1952;50.872;6.692;2024-01-15T04:00:22;20.87;;;12.93;;
3873;SDS011;1952;50.872;6.692;2024-01-15T04:02:50;24.10;;;13.47;;
3873;SDS011;1952;50.872;6.692;2024-01-15T04:05:18;17.00;;;11.87;;
3873;SDS011;1952;50.872;6.692;2024-01-15T04:07:47;19.30;;;10.87;;
3873;SDS011;1952;50.872;6.692;2024-01-15T04:10:16;18.00;;;10.93;;
3873;SDS011;1952;50.872;6.692;2024-01-15T04:12:44;16.40;;;10.33;;
3873;SDS011;1952;50.872;6.692;2024-01-15T04:15:13;15.47;;;9.83;;
3873;SDS011;1952;50.872;6.692;2024-01-15T04:17:41;15.90;;;9.70;;
3873;SDS011;1952;50.872;6.692;2024-01-15T04:20:10;11.87;;;8.20;;
3873;SDS011;1952;50.872;6.692;2024-01-15T04:22:38;19.33;;;10.57;;
3873;SDS011;1952;50.872;6.692;2024-01-15T04:25:08;13.60;;;9.53;;
3873;SDS011;1952;50.872;6.692;2024-01-15T04:27:37;12.00;;;9.80;;
3873;SDS011;1952;50.872;6.692;2024-01-15T04:30:05;13.20;;;8.50;;
3873;SDS011;1952;50.872;6.692;2024-01-15T04:32:34;13.13;;;8.80;;
3873;SDS011;1952;50.872;6.692;2024-01-15T04:35:03;14.10;;;9.50;;
3873;SDS011;1952;50.872;6.692;2024-01-15T04:37:31;14.83;;;8.60;;
3873;SDS011;1952;50.872;6.692;2024-01-15T04:40:00;14.60;;;9.20;;
3873;SDS011;1952;50.872;6.692;2024-01-15T04:42:31;18.87;;;10.57;;
3873;SDS011;1952;50.872;6.692;2024-01-15T04:45:00;13.67;;;9.20;;
3873;SDS011;1952;50.872;6.692;2024-01-15T04:47:28;14.33;;;8.50;;
3873;SDS011;1952;50.872;6.692;2024-01-15T04:49:56;11.63;;;9.53;;
3873;SDS011;1952;50.872;6.692;2024-01-15T04:52:25;16.27;;;10.50;;
3873;SDS011;1952;50.872;6.692;2024-01-15T04:54:53;16.70;;;9.40;;
3873;SDS011;1952;50.872;6.692;2024-01-15T04:57:21;16.17;;;9.47;;
3873;SDS011;1952;50.872;6.692;2024-01-15T05:00:07;19.83;;;10.23;;
3873;SDS011;1952;50.872;6.692;2024-01-15T05:02:36;17.80;;;11.67;;
3873;SDS011;1952;50.872;6.692;2024-01-15T05:05:04;18.27;;;9.97;;
3873;SDS011;1952;50.872;6.692;2024-01-15T05:07:32;14.57;;;8.80;;
3873;SDS011;1952;50.872;6.692;2024-01-15T05:10:01;9.80;;;6.70;;
3873;SDS011;1952;50.872;6.692;2024-01-15T05:12:30;13.70;;;8.57;;
3873;SDS011;1952;50.872;6.692;2024-01-15T05:14:58;9.70;;;6.27;;
3873;SDS011;1952;50.872;6.692;2024-01-15T05:17:28;15.83;;;7.87;;
3873;SDS011;1952;50.872;6.692;2024-01-15T05:19:57;11.13;;;7.30;;
3873;SDS011;1952;50.872;6.692;2024-01-15T05:22:26;11.57;;;8.50;;
3873;SDS011;1952;50.872;6.692;2024-01-15T05:24:54;11.90;;;9.07;;
3873;SDS011;1952;50.872;6.692;2024-01-15T05:27:23;11.60;;;7.80;;
3873;SDS011;1952;50.872;6.692;2024-01-15T05:29:51;12.20;;;8.23;;
3873;SDS011;1952;50.872;6.692;2024-01-15T05:32:19;7.33;;;6.07;;
3873;SDS011;1952;50.872;6.692;2024-01-15T05:34:49;10.27;;;7.00;;
3873;SDS011;1952;50.872;6.692;2024-01-15T05:37:18;10.57;;;7.77;;
3873;SDS011;1952;50.872;6.692;2024-01-15T05:39:46;12.87;;;8.23;;
3873;SDS011;1952;50.872;6.692;2024-01-15T05:42:15;12.60;;;8.20;;
3873;SDS011;1952;50.872;6.692;2024-01-15T05:44:43;9.97;;;7.40;;
3873;SDS011;1952;50.872;6.692;2024-01-15T05:47:11;10.97;;;7.67;;
3873;SDS011;1952;50.872;6.692;2024-01-15T05:49:40;12.17;;;8.43;;
3873;SDS011;1952;50.872;6.692;2024-01-15T05:52:10;9.93;;;7.57;;
3873;SDS011;1952;50.872;6.692;2024-01-15T05:54:38;12.10;;;9.13;;
3873;SDS011;1952;50.872;6.692;2024-01-15T05:57:06;13.17;;;10.33;;
3873;SDS011;1952;50.872;6.692;2024-01-15T05:59:35;13.77;;;8.73;;
3873;SDS011;1952;50.872;6.692;2024-01-15T06:02:03;15.53;;;9.60;;
3873;SDS011;1952;50.872;6.692;2024-01-15T06:04:32;13.43;;;8.97;;
3873;SDS011;1952;50.872;6.692;2024-01-15T06:07:00;11.30;;;8.80;;
3873;SDS011;1952;50.872;6.692;2024-01-15T06:09:30;14.63;;;10.67;;
3873;SDS011;1952;50.872;6.692;2024-01-15T06:11:59;13.03;;;8.43;;
3873;SDS011;1952;50.872;6.692;2024-01-15T06:14:27;13.77;;;9.73;;
3873;SDS011;1952;50.872;6.692;2024-01-15T06:16:56;12.57;;;9.27;;
3873;SDS011;1952;50.872;6.692;2024-01-15T06:19:24;15.27;;;8.37;;
3873;SDS011;1952;50.872;6.692;2024-01-15T06:21:53;14.43;;;9.40;;
3873;SDS011;1952;50.872;6.692;2024-01-15T06:24:21;12.00;;;9.07;;
3873;SDS011;1952;50.872;6.692;2024-01-15T06:26:51;10.23;;;8.43;;
3873;SDS011;1952;50.872;6.692;2024-01-15T06:29:20;12.93;;;9.23;;
3873;SDS011;1952;50.872;6.692;2024-01-15T06:31:48;12.87;;;9.03;;
3873;SDS011;1952;50.872;6.692;2024-01-15T06:34:17;11.20;;;8.63;;
3873;SDS011;1952;50.872;6.692;2024-01-15T06:36:45;13.27;;;9.93;;
3873;SDS011;1952;50.872;6.692;2024-01-15T06:39:14;11.97;;;8.33;;
3873;SDS011;1952;50.872;6.692;2024-01-15T06:41:42;11.17;;;8.13;;
3873;SDS011;1952;50.872;6.692;2024-01-15T06:44:12;11.43;;;8.10;;
3873;SDS011;1952;50.872;6.692;2024-01-15T06:46:42;13.97;;;8.77;;
3873;SDS011;1952;50.872;6.692;2024-01-15T06:51:56;13.90;;;9.40;;
3873;SDS011;1952;50.872;6.692;2024-01-15T06:54:38;8.20;;;6.47;;
3873;SDS011;1952;50.872;6.692;2024-01-15T06:57:07;9.63;;;7.37;;
3873;SDS011;1952;50.872;6.692;2024-01-15T06:59:38;11.33;;;7.37;;
3873;SDS011;1952;50.872;6.692;2024-01-15T07:02:07;11.77;;;8.00;;
3873;SDS011;1952;50.872;6.692;2024-01-15T07:04:44;13.70;;;8.37;;
3873;SDS011;1952;50.872;6.692;2024-01-15T07:07:17;11.10;;;7.70;;
3873;SDS011;1952;50.872;6.692;2024-01-15T07:10:00;13.30;;;9.00;;
3873;SDS011;1952;50.872;6.692;2024-01-15T07:12:30;13.43;;;9.33;;
3873;SDS011;1952;50.872;6.692;2024-01-15T07:15:21;12.53;;;9.17;;
3873;SDS011;1952;50.872;6.692;2024-01-15T07:17:55;14.27;;;9.53;;
3873;SDS011;1952;50.872;6.692;2024-01-15T07:20:24;14.37;;;8.17;;
3873;SDS011;1952;50.872;6.692;2024-01-15T07:22:55;13.70;;;10.80;;
3873;SDS011;1952;50.872;6.692;2024-01-15T07:25:29;10.70;;;7.93;;
3873;SDS011;1952;50.872;6.692;2024-01-15T07:27:59;10.00;;;8.43;;
3873;SDS011;1952;50.872;6.692;2024-01-15T07:33:17;13.13;;;8.97;;
3873;SDS011;1952;50.872;6.692;2024-01-15T07:35:56;14.83;;;9.43;;
3873;SDS011;1952;50.872;6.692;2024-01-15T07:38:33;11.87;;;9.10;;
3873;SDS011;1952;50.872;6.692;2024-01-15T07:41:07;14.07;;;8.33;;
3873;SDS011;1952;50.872;6.692;2024-01-15T07:43:36;11.70;;;9.73;;
3873;SDS011;1952;50.872;6.692;2024-01-15T07:46:13;12.80;;;9.80;;
3873;SDS011;1952;50.872;6.692;2024-01-15T07:48:48;11.53;;;8.67;;
3873;SDS011;1952;50.872;6.692;2024-01-15T07:51:23;15.20;;;9.90;;
3873;SDS011;1952;50.872;6.692;2024-01-15T07:54:08;13.33;;;9.17;;
3873;SDS011;1952;50.872;6.692;2024-01-15T07:59:45;19.67;;;9.10;;
3873;SDS011;1952;50.872;6.692;2024-01-15T08:02:31;15.40;;;9.80;;
3873;SDS011;1952;50.872;6.692;2024-01-15T08:08:47;9.50;;;7.87;;
3873;SDS011;1952;50.872;6.692;2024-01-15T08:11:43;16.50;;;9.20;;
3873;SDS011;1952;50.872;6.692;2024-01-15T08:14:36;15.10;;;10.23;;
3873;SDS011;1952;50.872;6.692;2024-01-15T08:17:23;18.77;;;9.53;;
3873;SDS011;1952;50.872;6.692;2024-01-15T08:20:11;12.23;;;8.33;;
3873;SDS011;1952;50.872;6.692;2024-01-15T08:22:51;11.70;;;8.20;;
3873;SDS011;1952;50.872;6.692;2024-01-15T08:25:36;12.03;;;8.37;;
3873;SDS011;1952;50.872;6.692;2024-01-15T08:28:11;13.10;;;8.67;;
3873;SDS011;1952;50.872;6.692;2024-01-15T08:30:58;12.97;;;8.67;;
3873;SDS011;1952;50.872;6.692;2024-01-15T08:33:35;14.90;;;8.30;;
3873;SDS011;1952;50.872;6.692;2024-01-15T09:17:12;11.87;;;5.70;;
3873;SDS011;1952;50.872;6.692;2024-01-15T09:20:10;8.47;;;5.00;;
3873;SDS011;1952;50.872;6.692;2024-01-15T09:22:43;6.30;;;5.43;;
3873;SDS011;1952;50.872;6.692;2024-01-15T09:25:44;7.73;;;5.03;;
3873;SDS011;1952;50.872;6.692;2024-01-15T09:28:19;7.47;;;5.20;;
3873;SDS011;1952;50.872;6.692;2024-01-15T09:31:11;9.00;;;5.57;;
3873;SDS011;1952;50.872;6.692;2024-01-15T09:33:47;6.43;;;4.80;;
3873;SDS011;1952;50.872;6.692;2024-01-15T09:36:25;5.03;;;4.33;;
3873;SDS011;1952;50.872;6.692;2024-01-15T09:39:03;8.03;;;5.77;;
3873;SDS011;1952;50.872;6.692;2024-01-15T09:41:39;4.63;;;4.23;;
3873;SDS011;1952;50.872;6.692;2024-01-15T10:10:38;9.60;;;5.40;;
3873;SDS011;1952;50.872;6.692;2024-01-15T10:13:29;6.57;;;4.70;;
3873;SDS011;1952;50.872;6.692;2024-01-15T10:16:00;4.33;;;3.93;;
3873;SDS011;1952;50.872;6.692;2024-01-15T10:19:01;7.00;;;4.63;;
3873;SDS011;1952;50.872;6.692;2024-01-15T10:21:59;5.70;;;5.20;;
3873;SDS011;1952;50.872;6.692;2024-01-15T10:24:34;5.40;;;5.00;;
3873;SDS011;1952;50.872;6.692;2024-01-15T10:46:25;5.40;;;4.90;;
3873;SDS011;1952;50.872;6.692;2024-01-15T10:48:55;5.13;;;4.63;;
3873;SDS011;1952;50.872;6.692;2024-01-15T10:51:51;5.47;;;3.80;;
3873;SDS011;1952;50.872;6.692;2024-01-15T10:54:24;6.17;;;5.23;;
3873;SDS011;1952;50.872;6.692;2024-01-15T10:56:58;4.67;;;4.27;;
3873;SDS011;1952;50.872;6.692;2024-01-15T10:59:34;4.50;;;4.13;;
3873;SDS011;1952;50.872;6.692;2024-01-15T11:02:15;7.43;;;6.83;;
3873;SDS011;1952;50.872;6.692;2024-01-15T11:04:48;5.33;;;4.83;;
3873;SDS011;1952;50.872;6.692;2024-01-15T11:07:18;5.67;;;4.27;;
3873;SDS011;1952;50.872;6.692;2024-01-15T11:09:56;5.50;;;5.00;;
3873;SDS011;1952;50.872;6.692;2024-01-15T11:12:37;7.60;;;4.53;;
3873;SDS011;1952;50.872;6.692;2024-01-15T11:15:24;5.00;;;4.50;;
3873;SDS011;1952;50.872;6.692;2024-01-15T11:18:14;4.20;;;3.80;;
3873;SDS011;1952;50.872;6.692;2024-01-15T11:21:27;5.47;;;4.60;;
3873;SDS011;1952;50.872;6.692;2024-01-15T11:29:33;6.60;;;4.67;;
3873;SDS011;1952;50.872;6.692;2024-01-15T11:32:04;6.37;;;5.40;;
3873;SDS011;1952;50.872;6.692;2024-01-15T11:34:53;5.70;;;4.80;;
3873;SDS011;1952;50.872;6.692;2024-01-15T11:40:42;8.10;;;5.60;;
3873;SDS011;1952;50.872;6.692;2024-01-15T11:43:32;9.60;;;5.80;;
3873;SDS011;1952;50.872;6.692;2024-01-15T11:46:11;4.80;;;4.40;;
3873;SDS011;1952;50.872;6.692;2024-01-15T12:04:33;9.37;;;4.60;;
3873;SDS011;1952;50.872;6.692;2024-01-15T12:07:19;6.30;;;3.97;;
3873;SDS011;1952;50.872;6.692;2024-01-15T12:10:03;9.23;;;5.20;;
3873;SDS011;1952;50.872;6.692;2024-01-15T12:12:57;7.80;;;6.27;;
3873;SDS011;1952;50.872;6.692;2024-01-15T12:15:41;5.87;;;3.90;;
3873;SDS011;1952;50.872;6.692;2024-01-15T12:18:40;6.33;;;4.63;;
3873;SDS011;1952;50.872;6.692;2024-01-15T12:24:52;4.80;;;4.20;;
3873;SDS011;1952;50.872;6.692;2024-01-15T12:36:00;6.60;;;4.30;;
3873;SDS011;1952;50.872;6.692;2024-01-15T12:39:01;3.93;;;2.80;;
3873;SDS011;1952;50.872;6.692;2024-01-15T12:48:20;12.43;;;3.80;;
3873;SDS011;1952;50.872;6.692;2024-01-15T12:51:05;4.33;;;3.70;;
3873;SDS011;1952;50.872;6.692;2024-01-15T12:54:06;7.50;;;3.30;;
3873;SDS011;1952;50.872;6.692;2024-01-15T12:59:22;5.07;;;3.63;;
3873;SDS011;1952;50.872;6.692;2024-01-15T13:02:16;4.60;;;3.07;;
3873;SDS011;1952;50.872;6.692;2024-01-15T13:47:08;4.23;;;2.53;;
3873;SDS011;1952;50.872;6.692;2024-01-15T13:49:51;2.57;;;2.37;;
3873;SDS011;1952;50.872;6.692;2024-01-15T13:52:31;3.27;;;2.70;;
3873;SDS011;1952;50.872;6.692;2024-01-15T13:55:19;3.77;;;2.50;;
3873;SDS011;1952;50.872;6.692;2024-01-15T13:58:08;3.60;;;2.10;;
3873;SDS011;1952;50.872;6.692;2024-01-15T14:00:56;2.77;;;2.50;;
3873;SDS011;1952;50.872;6.692;2024-01-15T14:03:45;4.73;;;2.40;;
3873;SDS011;1952;50.872;6.692;2024-01-15T14:06:43;2.40;;;2.20;;
3873;SDS011;1952;50.872;6.692;2024-01-15T14:09:14;2.13;;;2.03;;
3873;SDS011;1952;50.872;6.692;2024-01-15T14:12:00;2.50;;;2.00;;
3873;SDS011;1952;50.872;6.692;2024-01-15T14:14:31;6.70;;;2.70;;
3873;SDS011;1952;50.872;6.692;2024-01-15T14:17:31;2.50;;;2.30;;
3873;SDS011;1952;50.872;6.692;2024-01-15T14:28:23;2.30;;;1.87;;
3873;SDS011;1952;50.872;6.692;2024-01-15T14:31:11;2.50;;;2.30;;
3873;SDS011;1952;50.872;6.692;2024-01-15T14:34:03;2.10;;;2.00;;
3873;SDS011;1952;50.872;6.692;2024-01-15T14:36:50;3.17;;;2.20;;
3873;SDS011;1952;50.872;6.692;2024-01-15T14:39:42;3.47;;;2.10;;
3873;SDS011;1952;50.872;6.692;2024-01-15T14:42:26;4.83;;;2.47;;
3873;SDS011;1952;50.872;6.692;2024-01-15T14:51:47;2.63;;;2.07;;
3873;SDS011;1952;50.872;6.692;2024-01-15T14:54:32;2.03;;;1.93;;
3873;SDS011;1952;50.872;6.692;2024-01-15T14:57:06;4.63;;;2.47;;
3873;SDS011;1952;50.872;6.692;2024-01-15T15:02:58;2.20;;;1.97;;
3873;SDS011;1952;50.872;6.692;2024-01-15T15:05:55;2.10;;;2.00;;
3873;SDS011;1952;50.872;6.692;2024-01-15T15:12:01;3.80;;;2.43;;
3873;SDS011;1952;50.872;6.692;2024-01-15T15:14:57;2.40;;;2.20;;
3873;SDS011;1952;50.872;6.692;2024-01-15T15:17:48;1.90;;;1.80;;
3873;SDS011;1952;50.872;6.692;2024-01-15T15:20:47;3.37;;;3.03;;
3873;SDS011;1952;50.872;6.692;2024-01-15T15:23:27;2.60;;;2.40;;
3873;SDS011;1952;50.872;6.692;2024-01-15T15:25:58;2.77;;;2.50;;
3873;SDS011;1952;50.872;6.692;2024-01-15T15:31:36;1.90;;;1.80;;
3873;SDS011;1952;50.872;6.692;2024-01-15T15:34:09;1.97;;;1.87;;
3873;SDS011;1952;50.872;6.692;2024-01-15T15:36:49;1.80;;;1.70;;
3873;SDS011;1952;50.872;6.692;2024-01-15T15:39:33;1.97;;;1.87;;
3873;SDS011;1952;50.872;6.692;2024-01-15T15:42:03;1.90;;;1.80;;
3873;SDS011;1952;50.872;6.692;2024-01-15T15:44:49;2.00;;;1.90;;
3873;SDS011;1952;50.872;6.692;2024-01-15T15:47:45;2.43;;;2.20;;
3873;SDS011;1952;50.872;6.692;2024-01-15T15:50:16;3.77;;;1.80;;
3873;SDS011;1952;50.872;6.692;2024-01-15T15:52:45;2.17;;;2.07;;
3873;SDS011;1952;50.872;6.692;2024-01-15T15:55:17;6.33;;;2.07;;
3873;SDS011;1952;50.872;6.692;2024-01-15T15:58:03;2.40;;;2.30;;
3873;SDS011;1952;50.872;6.692;2024-01-15T16:03:48;2.30;;;2.10;;
3873;SDS011;1952;50.872;6.692;2024-01-15T16:06:44;2.80;;;2.20;;
3873;SDS011;1952;50.872;6.692;2024-01-15T16:09:20;2.37;;;2.17;;
3873;SDS011;1952;50.872;6.692;2024-01-15T16:11:53;2.37;;;2.17;;
3873;SDS011;1952;50.872;6.692;2024-01-15T16:14:23;4.10;;;2.60;;
3873;SDS011;1952;50.872;6.692;2024-01-15T16:16:56;3.10;;;2.10;;
3873;SDS011;1952;50.872;6.692;2024-01-15T16:20:03;4.80;;;2.50;;
3873;SDS011;1952;50.872;6.692;2024-01-15T16:23:11;4.90;;;2.97;;
3873;SDS011;1952;50.872;6.692;2024-01-15T16:26:09;4.57;;;2.57;;
3873;SDS011;1952;50.872;6.692;2024-01-15T16:29:08;3.87;;;3.03;;
3873;SDS011;1952;50.872;6.692;2024-01-15T16:32:07;4.03;;;3.10;;
3873;SDS011;1952;50.872;6.692;2024-01-15T16:35:06;3.50;;;3.20;;
3873;SDS011;1952;50.872;6.692;2024-01-15T16:37:38;3.77;;;3.30;;
3873;SDS011;1952;50.872;6.692;2024-01-15T16:40:21;4.20;;;2.67;;
3873;SDS011;1952;50.872;6.692;2024-01-15T16:42:55;3.53;;;3.23;;
3873;SDS011;1952;50.872;6.692;2024-01-15T16:45:41;4.03;;;3.10;;
3873;SDS011;1952;50.872;6.692;2024-01-15T16:48:29;5.90;;;3.20;;
3873;SDS011;1952;50.872;6.692;2024-01-15T16:57:43;4.10;;;3.73;;
3873;SDS011;1952;50.872;6.692;2024-01-15T17:00:13;6.43;;;3.20;;
3873;SDS011;1952;50.872;6.692;2024-01-15T17:03:02;4.20;;;2.77;;
3873;SDS011;1952;50.872;6.692;2024-01-15T17:05:59;5.43;;;3.63;;
3873;SDS011;1952;50.872;6.692;2024-01-15T17:08:55;3.20;;;2.90;;
3873;SDS011;1952;50.872;6.692;2024-01-15T17:11:24;4.43;;;3.57;;
3873;SDS011;1952;50.872;6.692;2024-01-15T17:13:54;3.50;;;3.20;;
3873;SDS011;1952;50.872;6.692;2024-01-15T17:16:23;3.17;;;2.97;;
3873;SDS011;1952;50.872;6.692;2024-01-15T17:18:53;6.00;;;3.47;;
3873;SDS011;1952;50.872;6.692;2024-01-15T17:21:21;4.70;;;4.00;;
3873;SDS011;1952;50.872;6.692;2024-01-15T17:23:50;4.27;;;3.87;;
3873;SDS011;1952;50.872;6.692;2024-01-15T17:26:18;5.30;;;3.47;;
3873;SDS011;1952;50.872;6.692;2024-01-15T17:29:04;4.23;;;3.63;;
3873;SDS011;1952;50.872;6.692;2024-01-15T17:31:33;4.17;;;3.23;;
3873;SDS011;1952;50.872;6.692;2024-01-15T17:34:05;4.20;;;3.50;;
3873;SDS011;1952;50.872;6.692;2024-01-15T17:36:46;5.30;;;3.40;;
3873;SDS011;1952;50.872;6.692;2024-01-15T17:39:22;6.43;;;4.30;;
3873;SDS011;1952;50.872;6.692;2024-01-15T17:42:17;4.70;;;3.33;;
3873;SDS011;1952;50.872;6.692;2024-01-15T17:44:56;3.13;;;2.80;;
3873;SDS011;1952;50.872;6.692;2024-01-15T17:47:24;5.33;;;3.70;;
3873;SDS011;1952;50.872;6.692;2024-01-15T17:49:54;4.40;;;4.00;;
3873;SDS011;1952;50.872;6.692;2024-01-15T17:52:26;3.93;;;3.40;;
3873;SDS011;1952;50.872;6.692;2024-01-15T17:54:54;3.43;;;3.13;;
3873;SDS011;1952;50.872;6.692;2024-01-15T17:57:24;5.73;;;3.03;;
3873;SDS011;1952;50.872;6.692;2024-01-15T17:59:56;3.40;;;3.20;;
3873;SDS011;1952;50.872;6.692;2024-01-15T18:02:33;8.10;;;4.00;;
3873;SDS011;1952;50.872;6.692;2024-01-15T18:05:03;5.47;;;3.60;;
3873;SDS011;1952;50.872;6.692;2024-01-15T18:07:46;4.87;;;3.13;;
3873;SDS011;1952;50.872;6.692;2024-01-15T18:10:15;10.83;;;3.90;;
3873;SDS011;1952;50.872;6.692;2024-01-15T18:12:57;6.30;;;4.90;;
3873;SDS011;1952;50.872;6.692;2024-01-15T18:18:27;5.00;;;3.93;;
3873;SDS011;1952;50.872;6.692;2024-01-15T18:20:55;6.40;;;3.60;;
3873;SDS011;1952;50.872;6.692;2024-01-15T18:23:26;8.67;;;4.87;;
3873;SDS011;1952;50.872;6.692;2024-01-15T18:26:01;4.47;;;3.57;;
3873;SDS011;1952;50.872;6.692;2024-01-15T18:28:31;4.50;;;4.03;;
3873;SDS011;1952;50.872;6.692;2024-01-15T18:31:00;4.60;;;4.20;;
3873;SDS011;1952;50.872;6.692;2024-01-15T18:33:34;5.57;;;3.60;;
3873;SDS011;1952;50.872;6.692;2024-01-15T18:36:19;5.60;;;4.10;;
3873;SDS011;1952;50.872;6.692;2024-01-15T18:38:48;5.00;;;3.77;;
3873;SDS011;1952;50.872;6.692;2024-01-15T18:41:20;10.20;;;4.80;;
3873;SDS011;1952;50.872;6.692;2024-01-15T18:43:50;3.77;;;3.37;;
3873;SDS011;1952;50.872;6.692;2024-01-15T18:46:21;4.27;;;3.30;;
3873;SDS011;1952;50.872;6.692;2024-01-15T18:49:21;4.00;;;3.70;;
3873;SDS011;1952;50.872;6.692;2024-01-15T18:51:50;3.87;;;3.43;;
3873;SDS011;1952;50.872;6.692;2024-01-15T18:54:25;4.80;;;4.40;;
3873;SDS011;1952;50.872;6.692;2024-01-15T18:57:05;4.63;;;4.23;;
3873;SDS011;1952;50.872;6.692;2024-01-15T18:59:33;7.33;;;4.17;;
3873;SDS011;1952;50.872;6.692;2024-01-15T19:02:18;7.97;;;4.60;;
3873;SDS011;1952;50.872;6.692;2024-01-15T19:04:52;5.27;;;4.20;;
3873;SDS011;1952;50.872;6.692;2024-01-15T19:07:23;5.17;;;4.57;;
3873;SDS011;1952;50.872;6.692;2024-01-15T19:09:52;20.33;;;6.13;;
3873;SDS011;1952;50.872;6.692;2024-01-15T19:12:21;8.10;;;4.03;;
3873;SDS011;1952;50.872;6.692;2024-01-15T19:14:51;8.73;;;4.60;;
3873;SDS011;1952;50.872;6.692;2024-01-15T19:17:20;8.70;;;4.90;;
3873;SDS011;1952;50.872;6.692;2024-01-15T19:19:51;4.90;;;4.40;;
3873;SDS011;1952;50.872;6.692;2024-01-15T19:22:22;13.90;;;5.30;;
3873;SDS011;1952;50.872;6.692;2024-01-15T19:24:51;7.80;;;5.27;;
3873;SDS011;1952;50.872;6.692;2024-01-15T19:27:19;7.13;;;5.90;;
3873;SDS011;1952;50.872;6.692;2024-01-15T19:30:02;9.20;;;4.97;;
3873;SDS011;1952;50.872;6.692;2024-01-15T19:32:31;5.77;;;5.10;;
3873;SDS011;1952;50.872;6.692;2024-01-15T19:35:02;5.87;;;5.27;;
3873;SDS011;1952;50.872;6.692;2024-01-15T19:37:32;8.67;;;6.00;;
3873;SDS011;1952;50.872;6.692;2024-01-15T19:40:04;6.27;;;4.40;;
3873;SDS011;1952;50.872;6.692;2024-01-15T19:42:33;4.90;;;4.50;;
3873;SDS011;1952;50.872;6.692;2024-01-15T19:45:03;6.77;;;5.07;;
3873;SDS011;1952;50.872;6.692;2024-01-15T19:47:37;6.17;;;5.07;;
3873;SDS011;1952;50.872;6.692;2024-01-15T19:50:20;8.80;;;4.77;;
3873;SDS011;1952;50.872;6.692;2024-01-15T19:53:02;8.20;;;5.77;;
3873;SDS011;1952;50.872;6.692;2024-01-15T19:55:33;6.27;;;5.13;;
3873;SDS011;1952;50.872;6.692;2024-01-15T19:58:03;6.20;;;5.60;;
3873;SDS011;1952;50.872;6.692;2024-01-15T20:00:35;9.23;;;5.43;;
3873;SDS011;1952;50.872;6.692;2024-01-15T20:03:05;6.03;;;5.43;;
3873;SDS011;1952;50.872;6.692;2024-01-15T20:05:39;5.77;;;4.10;;
3873;SDS011;1952;50.872;6.692;2024-01-15T20:08:15;6.63;;;4.43;;
3873;SDS011;1952;50.872;6.692;2024-01-15T20:10:46;5.53;;;4.10;;
3873;SDS011;1952;50.872;6.692;2024-01-15T20:13:20;6.33;;;5.73;;
3873;SDS011;1952;50.872;6.692;2024-01-15T20:15:49;5.40;;;3.93;;
3873;SDS011;1952;50.872;6.692;2024-01-15T20:18:26;5.57;;;5.07;;
3873;SDS011;1952;50.872;6.692;2024-01-15T20:20:57;4.93;;;4.20;;